createdAt,value
2019-01-16T00:05:04.084Z,12.70
2019-01-16T00:10:53.944Z,11.70
2019-01-16T00:16:31.894Z,13.63
2019-01-16T00:22:22.814Z,15.70
2019-01-16T00:28:02.299Z,9.77
2019-01-16T00:33:37.795Z,9.30
2019-01-16T00:39:27.800Z,7.67
2019-01-16T00:44:56.781Z,7.50
2019-01-16T00:50:31.461Z,8.00
2019-01-16T00:56:04.669Z,6.93
2019-01-16T01:01:42.806Z,6.47
2019-01-16T01:07:24.386Z,10.10
2019-01-16T01:12:55.960Z,7.50
2019-01-16T01:18:32.466Z,8.73
2019-01-16T01:24:07.609Z,8.97
2019-01-16T01:29:45.818Z,9.93
2019-01-16T01:35:15.651Z,19.47
2019-01-16T01:40:47.124Z,13.97
2019-01-16T01:46:19.795Z,14.73
2019-01-16T01:52:04.359Z,18.00
2019-01-16T01:57:35.069Z,23.40
2019-01-16T02:03:15.513Z,18.97
2019-01-16T02:08:49.315Z,12.00
2019-01-16T02:14:21.678Z,19.90
2019-01-16T02:20:00.326Z,14.80
2019-01-16T02:25:37.476Z,10.40
2019-01-16T02:31:08.536Z,9.30
2019-01-16T02:36:37.684Z,14.30
2019-01-16T02:42:15.404Z,14.10
2019-01-16T02:47:49.138Z,22.03
2019-01-16T02:53:22.311Z,23.63
2019-01-16T02:58:48.971Z,20.37
2019-01-16T03:04:36.186Z,19.13
2019-01-16T03:10:15.722Z,18.87
2019-01-16T03:15:47.343Z,17.27
2019-01-16T03:21:27.653Z,17.50
2019-01-16T03:27:09.185Z,15.73
2019-01-16T03:32:43.243Z,20.03
2019-01-16T03:38:26.975Z,21.13
2019-01-16T03:43:56.067Z,17.07
2019-01-16T03:49:29.459Z,12.47
2019-01-16T03:55:02.237Z,15.90
2019-01-16T04:00:36.269Z,14.27
2019-01-16T04:06:04.538Z,16.17
2019-01-16T04:11:37.448Z,9.43
2019-01-16T04:17:17.677Z,9.93
2019-01-16T04:22:54.906Z,12.90
2019-01-16T04:28:44.819Z,5.77
2019-01-16T04:34:24.250Z,6.20
2019-01-16T04:39:55.962Z,9.80
2019-01-16T04:45:28.236Z,9.00
2019-01-16T04:51:01.157Z,8.67
2019-01-16T04:56:32.182Z,10.17
2019-01-16T05:02:11.397Z,8.83
2019-01-16T05:07:41.547Z,7.50
2019-01-16T05:13:20.882Z,9.73
2019-01-16T05:18:52.915Z,9.63
2019-01-16T05:24:37.799Z,7.80
2019-01-16T05:30:23.486Z,10.87
2019-01-16T05:36:10.032Z,12.73
2019-01-16T05:41:59.812Z,18.40
2019-01-16T05:47:29.674Z,34.17
2019-01-16T05:53:04.651Z,26.90
2019-01-16T05:58:38.533Z,34.30
2019-01-16T06:04:12.360Z,52.73
2019-01-16T06:09:47.545Z,58.43
2019-01-16T06:15:34.094Z,52.30
2019-01-16T06:21:09.065Z,109.37
2019-01-16T06:32:33.805Z,134.53
2019-01-16T06:38:06.300Z,76.37
2019-01-16T06:43:50.315Z,52.57
2019-01-16T06:49:23.912Z,38.83
2019-01-16T06:54:54.562Z,33.23
2019-01-16T07:00:25.679Z,18.07
2019-01-16T07:06:06.903Z,44.50
2019-01-16T07:11:40.636Z,49.17
2019-01-16T07:17:08.025Z,26.50
2019-01-16T07:22:46.078Z,55.87
2019-01-16T07:28:24.598Z,20.47
2019-01-16T07:34:14.087Z,20.10
2019-01-16T07:39:46.220Z,14.07
2019-01-16T07:45:16.810Z,29.07
2019-01-16T07:50:59.796Z,19.03
2019-01-16T07:56:33.674Z,25.03
2019-01-16T08:02:09.265Z,11.80
2019-01-16T08:07:42.013Z,22.80
2019-01-16T08:13:20.863Z,25.30
2019-01-16T08:18:42.608Z,20.60
2019-01-16T08:24:12.228Z,20.30
2019-01-16T08:29:48.913Z,18.17
2019-01-16T08:35:40.184Z,25.30
2019-01-16T08:41:18.130Z,23.40
2019-01-16T08:46:54.976Z,29.33
2019-01-16T08:52:39.308Z,14.20
2019-01-16T08:58:31.019Z,8.53
2019-01-16T09:04:16.102Z,9.27
2019-01-16T09:09:52.927Z,14.37
2019-01-16T09:15:34.995Z,7.77
2019-01-16T09:21:09.278Z,8.83
2019-01-16T09:26:54.292Z,10.20
2019-01-16T09:32:33.540Z,5.13
2019-01-16T09:38:07.474Z,8.60
2019-01-16T09:43:42.896Z,4.03
2019-01-16T09:49:20.634Z,13.17
2019-01-16T09:54:54.108Z,7.93
2019-01-16T10:00:38.732Z,7.20
2019-01-16T10:06:04.113Z,2.73
2019-01-16T10:11:55.662Z,5.70
2019-01-16T10:17:33.786Z,4.20
2019-01-16T10:23:02.355Z,3.60
2019-01-16T10:28:47.453Z,3.80
2019-01-16T10:34:15.272Z,6.23
2019-01-16T10:39:46.537Z,7.63
2019-01-16T10:45:21.693Z,3.37
2019-01-16T10:51:08.185Z,7.00
2019-01-16T10:56:42.481Z,4.40
2019-01-16T11:02:18.151Z,2.47
2019-01-16T11:07:47.989Z,3.77
2019-01-16T11:13:16.506Z,4.97
2019-01-16T11:18:58.588Z,3.90
2019-01-16T11:24:21.995Z,4.97
2019-01-16T11:29:35.752Z,2.70
2019-01-16T11:35:11.879Z,2.93
2019-01-16T11:40:52.444Z,3.53
2019-01-16T11:46:25.911Z,5.20
2019-01-16T11:52:05.468Z,2.10
2019-01-16T11:57:33.283Z,2.13
2019-01-16T12:03:15.148Z,3.13
2019-01-16T12:08:59.975Z,4.30
2019-01-16T12:14:28.308Z,5.20
2019-01-16T12:20:02.670Z,3.93
2019-01-16T12:25:31.326Z,2.27
2019-01-16T12:31:00.395Z,2.27
2019-01-16T12:36:28.509Z,2.73
2019-01-16T12:42:01.566Z,3.87
2019-01-16T12:47:36.288Z,2.13
2019-01-16T12:53:02.648Z,2.40
2019-01-16T12:58:38.903Z,3.63
2019-01-16T13:04:20.761Z,2.70
2019-01-16T13:09:50.989Z,5.70
2019-01-16T13:15:20.494Z,12.47
2019-01-16T13:20:57.669Z,4.80
2019-01-16T13:26:33.548Z,5.50
2019-01-16T13:32:06.119Z,3.93
2019-01-16T13:37:51.386Z,4.20
2019-01-16T13:43:30.414Z,2.33
2019-01-16T13:49:16.147Z,2.20
2019-01-16T13:55:00.223Z,2.37
2019-01-16T14:00:55.804Z,4.10
2019-01-16T14:06:40.194Z,3.10
2019-01-16T14:12:24.088Z,2.30
2019-01-16T14:17:52.774Z,2.20
2019-01-16T14:23:40.063Z,7.47
2019-01-16T14:29:11.757Z,7.33
2019-01-16T14:34:36.703Z,3.33
2019-01-16T14:40:07.055Z,4.27
2019-01-16T14:45:39.397Z,2.87
2019-01-16T14:51:06.699Z,4.50
2019-01-16T14:56:43.884Z,3.60
2019-01-16T15:02:14.757Z,2.53
2019-01-16T15:07:59.264Z,5.77
2019-01-16T15:13:25.995Z,4.53
2019-01-16T15:18:57.598Z,9.20
2019-01-16T15:24:28.615Z,13.43
2019-01-16T15:29:59.330Z,2.90
2019-01-16T15:35:34.938Z,3.80
2019-01-16T15:41:05.899Z,3.03
2019-01-16T15:46:29.792Z,6.47
2019-01-16T15:52:03.808Z,3.97
2019-01-16T15:57:44.614Z,5.23
2019-01-16T16:03:26.843Z,4.70
2019-01-16T16:09:01.462Z,5.67
2019-01-16T16:14:52.439Z,6.83
2019-01-16T16:20:22.914Z,6.03
2019-01-16T16:26:01.781Z,4.43
2019-01-16T16:31:34.085Z,4.93
2019-01-16T16:37:10.389Z,23.87
2019-01-16T16:42:45.194Z,36.50
2019-01-16T16:48:23.075Z,92.10
2019-01-16T16:54:08.639Z,86.93
2019-01-16T16:59:54.077Z,76.13
2019-01-16T17:11:52.560Z,133.77
2019-01-16T17:17:28.848Z,123.40
2019-01-16T17:23:16.928Z,142.63
2019-01-16T17:28:45.374Z,180.17
2019-01-16T17:34:17.081Z,127.33
2019-01-16T17:39:57.620Z,126.17
2019-01-16T17:45:24.116Z,85.73
2019-01-16T17:50:57.051Z,114.07
2019-01-16T17:56:38.324Z,25.43
2019-01-16T18:02:24.445Z,30.37
2019-01-16T18:07:53.125Z,24.43
2019-01-16T18:13:38.932Z,17.37
2019-01-16T18:19:11.971Z,5.10
2019-01-16T18:24:44.843Z,7.87
2019-01-16T18:36:44.450Z,18.37
2019-01-16T18:42:43.174Z,11.33
2019-01-16T18:48:25.961Z,7.03
2019-01-16T18:54:05.393Z,5.83
2019-01-16T18:59:47.625Z,4.80
2019-01-16T19:11:43.513Z,3.90
2019-01-16T19:17:27.270Z,4.33
2019-01-16T20:11:59.766Z,4.70
2019-01-16T20:17:43.741Z,3.30
2019-01-16T20:23:13.838Z,5.07
2019-01-16T20:29:03.699Z,6.43
2019-01-16T20:34:52.923Z,4.97
2019-01-16T20:40:37.732Z,8.57
2019-01-16T20:46:12.797Z,24.07
2019-01-16T20:52:03.291Z,21.27
2019-01-16T20:58:10.642Z,11.60
2019-01-16T21:10:00.202Z,6.57
2019-01-16T21:15:57.131Z,5.60
2019-01-16T21:21:36.640Z,8.17
2019-01-16T21:27:16.414Z,18.97
2019-01-16T21:33:10.537Z,37.83
2019-01-16T21:38:39.531Z,23.53
2019-01-16T21:44:38.902Z,23.73
2019-01-16T21:50:15.958Z,19.90
2019-01-16T21:56:10.724Z,29.30
2019-01-16T22:01:47.496Z,27.07
2019-01-16T22:07:35.644Z,11.57
2019-01-16T22:13:10.331Z,4.97
2019-01-16T22:19:05.657Z,20.00
2019-01-16T22:29:47.793Z,11.07
2019-01-16T22:35:54.540Z,8.37
2019-01-16T22:41:39.988Z,10.10
2019-01-16T22:47:34.684Z,11.93
2019-01-16T22:53:05.869Z,8.03
2019-01-16T22:58:42.874Z,9.27
2019-01-16T23:04:30.588Z,5.67
2019-01-16T23:10:13.465Z,7.53
2019-01-16T23:15:51.631Z,32.07
2019-01-16T23:21:38.212Z,22.90
2019-01-16T23:27:12.147Z,12.17
2019-01-16T23:32:49.465Z,9.23
2019-01-16T23:38:43.564Z,10.20
2019-01-16T23:44:28.923Z,17.90
2019-01-16T23:50:00.473Z,17.57
2019-01-16T23:55:35.699Z,16.10
